createdAt,value
2023-02-06T00:00:38.296Z,10.45
2023-02-06T00:03:05.387Z,13.00
2023-02-06T00:05:32.423Z,4.53
2023-02-06T00:07:59.143Z,8.57
2023-02-06T00:10:25.874Z,7.28
2023-02-06T00:12:52.676Z,6.60
2023-02-06T00:15:19.482Z,6.75
2023-02-06T00:17:46.127Z,15.90
2023-02-06T00:20:13.242Z,6.80
2023-02-06T00:22:40.168Z,6.00
2023-02-06T00:25:07.257Z,9.07
2023-02-06T00:27:33.992Z,8.80
2023-02-06T00:30:00.757Z,7.07
2023-02-06T00:32:27.689Z,5.60
2023-02-06T00:34:56.572Z,9.43
2023-02-06T00:37:23.516Z,10.98
2023-02-06T00:39:50.288Z,6.18
2023-02-06T00:42:17.019Z,7.72
2023-02-06T00:44:45.342Z,8.13
2023-02-06T00:47:12.207Z,9.23
2023-02-06T00:49:39.152Z,12.10
2023-02-06T00:52:05.884Z,18.30
2023-02-06T00:54:32.625Z,9.18
2023-02-06T00:56:59.364Z,10.95
2023-02-06T00:59:26.168Z,16.88
2023-02-06T01:01:53.296Z,6.55
2023-02-06T01:04:20.128Z,7.40
2023-02-06T01:06:46.806Z,10.90
2023-02-06T01:09:13.909Z,7.82
2023-02-06T01:11:40.986Z,6.28
2023-02-06T01:14:07.777Z,10.30
2023-02-06T01:16:34.453Z,4.82
2023-02-06T01:19:01.425Z,10.10
2023-02-06T01:21:28.248Z,7.90
2023-02-06T01:23:58.020Z,8.75
2023-02-06T01:26:26.828Z,8.23
2023-02-06T01:28:54.344Z,6.95
2023-02-06T01:31:23.206Z,13.45
2023-02-06T01:33:50.541Z,5.80
2023-02-06T01:36:18.084Z,11.20
2023-02-06T01:38:44.989Z,13.13
2023-02-06T01:41:12.122Z,10.05
2023-02-06T01:43:40.714Z,7.60
2023-02-06T01:46:07.981Z,8.25
2023-02-06T01:48:43.061Z,7.43
2023-02-06T01:51:15.024Z,11.88
2023-02-06T01:53:43.121Z,8.68
2023-02-06T01:56:10.454Z,16.98
2023-02-06T01:58:42.603Z,12.90
2023-02-06T02:01:09.757Z,11.13
2023-02-06T02:03:38.136Z,10.27
2023-02-06T02:06:09.093Z,8.55
2023-02-06T02:08:40.767Z,12.07
2023-02-06T02:11:08.637Z,7.50
2023-02-06T02:13:38.434Z,10.18
2023-02-06T02:16:08.324Z,7.03
2023-02-06T02:18:38.186Z,7.88
2023-02-06T02:21:20.297Z,17.55
2023-02-06T02:24:06.739Z,11.25
2023-02-06T02:26:47.045Z,11.80
2023-02-06T02:29:33.251Z,9.43
2023-02-06T02:32:06.056Z,13.45
2023-02-06T02:34:32.756Z,9.68
2023-02-06T02:37:19.579Z,11.55
2023-02-06T02:39:46.396Z,18.30
2023-02-06T02:42:26.822Z,11.52
2023-02-06T02:44:59.601Z,7.10
2023-02-06T02:47:28.957Z,10.77
2023-02-06T02:49:56.374Z,8.50
2023-02-06T02:52:23.188Z,9.60
2023-02-06T02:54:49.922Z,8.77
2023-02-06T02:57:19.747Z,15.32
2023-02-06T02:59:47.948Z,13.65
2023-02-06T03:02:21.190Z,9.65
2023-02-06T03:04:57.720Z,9.82
2023-02-06T03:07:45.467Z,7.53
2023-02-06T03:10:20.996Z,11.65
2023-02-06T03:12:52.762Z,8.32
2023-02-06T03:15:26.362Z,14.30
2023-02-06T03:17:56.116Z,9.43
2023-02-06T03:20:23.622Z,11.13
2023-02-06T03:22:50.968Z,11.85
2023-02-06T03:25:20.333Z,7.68
2023-02-06T03:27:47.897Z,7.65
2023-02-06T03:30:16.174Z,7.22
2023-02-06T03:32:46.003Z,6.13
2023-02-06T03:35:21.054Z,6.30
2023-02-06T03:37:48.295Z,10.63
2023-02-06T03:40:16.532Z,9.60
2023-02-06T03:42:45.728Z,7.38
2023-02-06T03:45:15.498Z,16.10
2023-02-06T03:47:43.877Z,8.15
2023-02-06T03:50:11.948Z,16.58
2023-02-06T03:52:41.337Z,13.43
2023-02-06T03:55:12.761Z,10.02
2023-02-06T03:57:40.644Z,9.07
2023-02-06T04:00:08.038Z,8.63
2023-02-06T04:02:39.770Z,6.97
2023-02-06T04:05:06.908Z,7.50
2023-02-06T04:07:34.840Z,13.95
2023-02-06T04:10:02.052Z,10.27
2023-02-06T04:12:29.136Z,10.82
2023-02-06T04:14:57.861Z,11.63
2023-02-06T04:17:43.108Z,10.35
2023-02-06T04:20:11.858Z,10.95
2023-02-06T04:22:39.341Z,8.85
2023-02-06T04:25:06.651Z,12.85
2023-02-06T04:27:33.613Z,8.25
2023-02-06T04:30:01.490Z,8.27
2023-02-06T04:32:28.465Z,10.57
2023-02-06T04:34:55.221Z,9.32
2023-02-06T04:37:21.982Z,12.32
2023-02-06T04:39:48.795Z,8.68
2023-02-06T04:42:15.523Z,9.27
2023-02-06T04:44:42.261Z,9.68
2023-02-06T04:47:08.978Z,7.40
2023-02-06T04:49:35.747Z,10.05
2023-02-06T04:52:02.710Z,9.55
2023-02-06T04:54:32.392Z,15.98
2023-02-06T04:56:59.432Z,8.38
2023-02-06T04:59:29.447Z,12.50
2023-02-06T05:01:56.732Z,8.23
2023-02-06T05:04:23.721Z,6.25
2023-02-06T05:06:50.517Z,15.52
2023-02-06T05:09:20.041Z,7.63
2023-02-06T05:11:46.996Z,12.48
2023-02-06T05:14:13.688Z,13.38
2023-02-06T05:16:40.463Z,16.60
2023-02-06T05:19:07.318Z,17.10
2023-02-06T05:21:34.087Z,11.98
2023-02-06T05:24:00.787Z,10.15
2023-02-06T05:26:27.583Z,9.27
2023-02-06T05:28:54.450Z,11.95
2023-02-06T05:31:21.602Z,10.65
2023-02-06T05:33:52.483Z,8.10
2023-02-06T05:36:19.904Z,8.48
2023-02-06T05:38:47.333Z,15.52
2023-02-06T05:41:14.845Z,13.95
2023-02-06T05:43:41.758Z,9.15
2023-02-06T05:46:08.715Z,9.13
2023-02-06T05:48:35.591Z,14.68
2023-02-06T05:51:02.275Z,9.75
2023-02-06T05:53:29.538Z,12.25
2023-02-06T05:55:56.583Z,12.80
2023-02-06T05:58:23.896Z,10.55
2023-02-06T06:00:52.769Z,9.25
2023-02-06T06:03:20.240Z,15.57
2023-02-06T06:05:47.091Z,9.23
2023-02-06T06:08:13.920Z,14.52
2023-02-06T06:10:41.810Z,21.30
2023-02-06T06:13:08.604Z,14.15
2023-02-06T06:15:35.797Z,9.95
2023-02-06T06:18:03.019Z,11.70
2023-02-06T06:20:29.818Z,10.98
2023-02-06T06:22:56.600Z,14.57
2023-02-06T06:25:23.497Z,13.88
2023-02-06T06:27:50.202Z,14.82
2023-02-06T06:30:17.419Z,14.88
2023-02-06T06:32:44.343Z,14.68
2023-02-06T06:35:11.125Z,10.70
2023-02-06T06:37:37.902Z,12.70
2023-02-06T06:40:05.110Z,12.05
2023-02-06T06:42:31.867Z,11.23
2023-02-06T06:44:58.825Z,15.68
2023-02-06T06:47:25.655Z,13.90
2023-02-06T06:49:52.600Z,17.38
2023-02-06T06:52:24.951Z,15.50
2023-02-06T06:54:53.115Z,21.40
2023-02-06T06:57:20.970Z,17.40
2023-02-06T06:59:48.187Z,11.63
2023-02-06T07:02:15.796Z,21.98
2023-02-06T07:04:42.600Z,18.65
2023-02-06T07:07:09.523Z,9.55
2023-02-06T07:09:36.485Z,9.02
2023-02-06T07:12:03.400Z,14.75
2023-02-06T07:14:30.289Z,12.88
2023-02-06T07:16:57.259Z,9.48
2023-02-06T07:19:24.481Z,21.55
2023-02-06T07:21:51.355Z,22.35
2023-02-06T07:24:18.121Z,9.93
2023-02-06T07:26:45.283Z,14.52
2023-02-06T07:29:12.010Z,7.22
2023-02-06T07:31:39.305Z,7.97
2023-02-06T07:34:06.264Z,10.18
2023-02-06T07:36:33.087Z,10.10
2023-02-06T07:39:03.876Z,19.17
2023-02-06T07:41:30.601Z,20.60
2023-02-06T07:43:59.644Z,25.33
2023-02-06T07:46:26.510Z,24.05
2023-02-06T07:48:57.030Z,34.10
2023-02-06T07:51:31.725Z,30.08
2023-02-06T07:54:01.064Z,27.17
2023-02-06T07:56:31.020Z,24.77
2023-02-06T07:58:59.647Z,23.63
2023-02-06T08:01:32.827Z,18.30
2023-02-06T08:04:13.014Z,25.17
2023-02-06T08:06:46.091Z,22.30
2023-02-06T08:09:18.155Z,18.15
2023-02-06T08:11:50.082Z,18.70
2023-02-06T08:14:16.882Z,19.30
2023-02-06T08:16:48.174Z,15.68
2023-02-06T08:19:15.307Z,14.07
2023-02-06T08:21:56.317Z,11.10
2023-02-06T08:24:26.416Z,12.02
2023-02-06T08:27:01.684Z,14.40
2023-02-06T08:29:40.444Z,16.80
2023-02-06T08:32:11.184Z,15.80
2023-02-06T08:34:41.893Z,15.98
2023-02-06T08:37:14.598Z,20.77
2023-02-06T08:39:41.533Z,22.13
2023-02-06T08:42:08.750Z,16.83
2023-02-06T08:44:37.142Z,19.13
2023-02-06T08:47:10.467Z,19.17
2023-02-06T08:49:38.454Z,11.15
2023-02-06T08:52:14.603Z,11.57
2023-02-06T08:54:45.789Z,13.88
2023-02-06T08:57:19.428Z,15.73
2023-02-06T08:59:51.030Z,21.33
2023-02-06T09:02:24.379Z,21.08
2023-02-06T09:04:59.668Z,15.63
2023-02-06T09:07:29.903Z,14.35
2023-02-06T09:09:57.126Z,18.70
2023-02-06T09:12:27.331Z,24.92
2023-02-06T09:15:06.906Z,18.73
2023-02-06T09:17:37.731Z,16.70
2023-02-06T09:20:05.552Z,30.50
2023-02-06T09:22:35.908Z,14.88
2023-02-06T09:25:05.375Z,10.88
2023-02-06T09:27:32.513Z,13.80
2023-02-06T09:29:59.315Z,10.32
2023-02-06T09:32:26.134Z,9.70
2023-02-06T09:34:52.880Z,8.27
2023-02-06T09:37:20.176Z,27.40
2023-02-06T09:39:47.290Z,9.38
2023-02-06T09:42:23.909Z,12.45
2023-02-06T09:44:56.087Z,10.65
2023-02-06T09:47:31.719Z,11.82
2023-02-06T09:50:02.678Z,12.73
2023-02-06T09:52:29.770Z,7.45
2023-02-06T09:55:15.463Z,13.73
2023-02-06T09:58:01.482Z,11.88
2023-02-06T10:00:28.645Z,15.68
2023-02-06T10:03:07.878Z,9.52
2023-02-06T10:05:41.845Z,6.75
2023-02-06T10:08:14.300Z,11.48
2023-02-06T10:10:50.794Z,10.85
2023-02-06T10:13:33.080Z,17.98
2023-02-06T10:16:11.869Z,15.52
2023-02-06T10:18:48.014Z,8.82
2023-02-06T10:21:21.086Z,7.30
2023-02-06T10:23:54.706Z,9.35
2023-02-06T10:26:25.698Z,8.90
2023-02-06T10:28:56.040Z,9.27
2023-02-06T10:31:29.638Z,13.07
2023-02-06T10:34:21.157Z,8.18
2023-02-06T10:36:48.907Z,11.07
2023-02-06T10:39:15.740Z,7.45
2023-02-06T10:41:44.894Z,9.75
2023-02-06T10:44:25.167Z,10.07
2023-02-06T10:46:53.364Z,9.63
2023-02-06T10:49:27.854Z,18.90
2023-02-06T10:52:00.924Z,11.45
2023-02-06T10:54:39.850Z,8.52
2023-02-06T10:57:28.588Z,10.75
2023-02-06T11:00:00.949Z,10.80
2023-02-06T11:02:31.966Z,8.93
2023-02-06T11:05:06.989Z,6.80
2023-02-06T11:07:56.369Z,9.23
2023-02-06T11:10:25.829Z,9.90
2023-02-06T11:13:00.290Z,9.88
2023-02-06T11:15:39.444Z,12.63
2023-02-06T11:18:08.275Z,9.60
2023-02-06T11:20:36.845Z,25.30
2023-02-06T11:23:17.942Z,10.25
2023-02-06T11:25:51.930Z,5.20
2023-02-06T11:28:20.572Z,5.72
2023-02-06T11:30:56.144Z,12.13
2023-02-06T11:33:26.652Z,7.68
2023-02-06T11:35:59.599Z,9.35
2023-02-06T11:38:28.173Z,10.33
2023-02-06T11:40:55.392Z,9.65
2023-02-06T11:43:31.478Z,4.70
2023-02-06T11:46:18.989Z,8.88
2023-02-06T11:49:02.005Z,7.00
2023-02-06T11:52:04.492Z,6.75
2023-02-06T11:54:35.273Z,9.68
2023-02-06T11:57:19.238Z,7.60
2023-02-06T11:59:59.913Z,8.40
2023-02-06T12:02:33.871Z,10.90
2023-02-06T12:05:03.769Z,9.15
2023-02-06T12:07:41.031Z,5.57
2023-02-06T12:10:24.998Z,5.60
2023-02-06T12:12:53.758Z,5.75
2023-02-06T12:15:46.892Z,9.68
2023-02-06T12:18:20.126Z,6.32
2023-02-06T12:20:54.069Z,8.32
2023-02-06T12:23:24.088Z,6.97
2023-02-06T12:25:55.905Z,13.32
2023-02-06T12:28:41.677Z,7.50
2023-02-06T12:31:32.251Z,8.18
2023-02-06T12:34:06.385Z,9.20
2023-02-06T12:39:03.741Z,8.60
2023-02-06T12:41:49.484Z,6.28
2023-02-06T12:44:20.174Z,10.40
2023-02-06T12:46:49.994Z,5.35
2023-02-06T12:49:20.652Z,15.65
2023-02-06T12:52:04.988Z,7.55
2023-02-06T12:54:32.390Z,11.77
2023-02-06T12:57:05.016Z,11.95
2023-02-06T12:59:57.606Z,9.50
2023-02-06T13:02:41.501Z,5.03
2023-02-06T13:05:22.557Z,9.00
2023-02-06T13:07:50.270Z,7.85
2023-02-06T13:10:25.765Z,7.75
2023-02-06T13:12:56.753Z,12.68
2023-02-06T13:15:28.141Z,5.45
2023-02-06T13:17:58.418Z,8.98
2023-02-06T13:20:25.670Z,7.13
2023-02-06T13:22:54.221Z,8.57
2023-02-06T13:25:33.354Z,9.38
2023-02-06T13:28:01.800Z,4.32
2023-02-06T13:30:29.022Z,5.40
2023-02-06T13:33:08.899Z,11.70
2023-02-06T13:35:53.588Z,8.88
2023-02-06T13:38:22.710Z,6.72
2023-02-06T13:41:14.338Z,13.95
2023-02-06T13:43:59.996Z,4.13
2023-02-06T13:46:39.109Z,9.70
2023-02-06T13:49:15.691Z,7.88
2023-02-06T13:51:45.641Z,9.38
2023-02-06T13:54:15.431Z,7.88
2023-02-06T13:56:45.411Z,9.75
2023-02-06T13:59:17.557Z,7.35
2023-02-06T14:01:46.264Z,8.18
2023-02-06T14:04:18.502Z,8.60
2023-02-06T14:06:56.767Z,8.73
2023-02-06T14:09:51.031Z,12.45
2023-02-06T14:12:36.766Z,8.48
2023-02-06T14:15:08.222Z,9.98
2023-02-06T14:17:37.768Z,11.38
2023-02-06T14:20:23.674Z,14.35
2023-02-06T14:22:59.832Z,5.95
2023-02-06T14:25:45.106Z,7.78
2023-02-06T14:28:24.276Z,7.55
2023-02-06T14:30:57.036Z,9.43
2023-02-06T14:33:46.139Z,9.05
2023-02-06T14:36:23.966Z,10.68
2023-02-06T14:39:03.665Z,13.30
2023-02-06T14:41:31.774Z,6.80
2023-02-06T14:43:59.755Z,6.72
2023-02-06T14:46:31.529Z,7.60
2023-02-06T14:49:00.958Z,9.00
2023-02-06T14:51:29.588Z,6.22
2023-02-06T14:54:01.479Z,6.15
2023-02-06T14:56:32.414Z,9.85
2023-02-06T14:59:28.016Z,18.20
2023-02-06T15:01:57.248Z,11.60
2023-02-06T15:04:28.745Z,9.45
2023-02-06T15:06:57.869Z,14.85
2023-02-06T15:09:32.677Z,6.83
2023-02-06T15:12:19.542Z,11.18
2023-02-06T15:14:55.849Z,7.30
2023-02-06T15:17:31.896Z,10.57
2023-02-06T15:20:19.393Z,7.82
2023-02-06T15:22:48.308Z,13.68
2023-02-06T15:25:32.970Z,12.95
2023-02-06T15:28:10.320Z,11.60
2023-02-06T15:30:42.089Z,9.48
2023-02-06T15:33:14.238Z,10.02
2023-02-06T15:35:48.613Z,9.43
2023-02-06T15:38:26.014Z,11.07
2023-02-06T15:40:55.262Z,8.43
2023-02-06T15:43:27.317Z,12.68
2023-02-06T15:46:01.465Z,8.18
2023-02-06T15:48:34.923Z,15.27
2023-02-06T15:51:22.851Z,8.60
2023-02-06T15:53:54.406Z,12.90
2023-02-06T15:56:31.838Z,6.30
2023-02-06T15:59:01.753Z,7.13
2023-02-06T16:01:31.225Z,13.32
2023-02-06T16:04:23.744Z,10.75
2023-02-06T16:07:05.259Z,6.78
2023-02-06T16:09:41.309Z,8.55
2023-02-06T16:12:17.048Z,8.30
2023-02-06T16:15:00.549Z,6.45
2023-02-06T16:17:36.993Z,8.77
2023-02-06T16:20:26.887Z,11.07
2023-02-06T16:22:57.302Z,11.65
2023-02-06T16:25:29.530Z,7.78
2023-02-06T16:28:02.438Z,10.18
2023-02-06T16:30:31.236Z,9.93
2023-02-06T16:33:02.158Z,9.75
2023-02-06T16:35:31.041Z,8.23
2023-02-06T16:37:57.693Z,10.93
2023-02-06T16:40:27.271Z,12.88
2023-02-06T16:42:54.312Z,11.85
2023-02-06T16:45:27.756Z,14.10
2023-02-06T16:47:57.041Z,10.60
2023-02-06T16:50:27.537Z,13.05
2023-02-06T16:52:58.896Z,11.07
2023-02-06T16:55:26.512Z,13.30
2023-02-06T16:57:59.336Z,16.73
2023-02-06T17:00:35.002Z,20.65
2023-02-06T17:03:11.439Z,15.00
2023-02-06T17:05:46.710Z,14.43
2023-02-06T17:08:21.351Z,17.08
2023-02-06T17:10:48.659Z,12.68
2023-02-06T17:13:24.227Z,13.02
2023-02-06T17:15:57.135Z,12.88
2023-02-06T17:18:23.907Z,14.10
2023-02-06T17:21:00.607Z,11.95
2023-02-06T17:23:30.007Z,19.00
2023-02-06T17:25:59.193Z,12.43
2023-02-06T17:28:26.075Z,10.98
2023-02-06T17:31:01.511Z,16.90
2023-02-06T17:33:32.042Z,14.50
2023-02-06T17:36:02.042Z,14.32
2023-02-06T17:38:34.315Z,15.77
2023-02-06T17:41:01.097Z,12.98
2023-02-06T17:43:36.245Z,22.08
2023-02-06T17:46:16.008Z,15.90
2023-02-06T17:48:44.520Z,24.52
2023-02-06T17:51:19.568Z,14.25
2023-02-06T17:53:49.668Z,19.52
2023-02-06T17:56:27.252Z,15.30
2023-02-06T17:58:59.424Z,8.93
2023-02-06T18:01:30.953Z,17.77
2023-02-06T18:04:03.308Z,18.77
2023-02-06T18:06:36.453Z,17.15
2023-02-06T18:09:04.064Z,19.15
2023-02-06T18:11:31.566Z,18.95
2023-02-06T18:13:58.286Z,30.23
2023-02-06T18:16:27.126Z,14.93
2023-02-06T18:18:58.098Z,16.80
2023-02-06T18:21:28.535Z,18.08
2023-02-06T18:24:00.533Z,17.95
2023-02-06T18:26:27.811Z,12.48
2023-02-06T18:28:54.780Z,22.80
2023-02-06T18:31:32.715Z,17.33
2023-02-06T18:34:02.252Z,14.02
2023-02-06T18:36:31.774Z,25.67
2023-02-06T18:39:01.060Z,23.40
2023-02-06T18:41:48.821Z,19.40
2023-02-06T18:44:20.972Z,16.48
2023-02-06T18:46:50.658Z,18.52
2023-02-06T18:49:21.110Z,18.10
2023-02-06T18:51:47.819Z,14.52
2023-02-06T18:54:14.759Z,17.60
2023-02-06T18:56:42.846Z,15.93
2023-02-06T18:59:10.065Z,11.85
2023-02-06T19:01:40.125Z,18.42
2023-02-06T19:04:07.126Z,16.23
2023-02-06T19:06:36.560Z,18.52
2023-02-06T19:09:10.778Z,17.73
2023-02-06T19:11:37.930Z,15.88
2023-02-06T19:14:12.704Z,14.68
2023-02-06T19:16:40.790Z,20.67
2023-02-06T19:19:12.983Z,24.30
2023-02-06T19:21:43.932Z,19.08
2023-02-06T19:24:14.976Z,21.23
2023-02-06T19:26:47.230Z,19.52
2023-02-06T19:29:16.703Z,15.63
2023-02-06T19:31:46.660Z,18.55
2023-02-06T19:34:13.559Z,22.50
2023-02-06T19:36:40.341Z,14.38
2023-02-06T19:39:09.380Z,16.85
2023-02-06T19:41:36.142Z,15.38
2023-02-06T19:44:05.505Z,14.60
2023-02-06T19:46:32.785Z,20.77
2023-02-06T19:48:59.790Z,17.55
2023-02-06T19:51:29.536Z,16.75
2023-02-06T19:53:57.275Z,21.83
2023-02-06T19:56:31.022Z,17.30
2023-02-06T19:58:58.849Z,18.70
2023-02-06T20:01:26.820Z,21.38
2023-02-06T20:03:53.819Z,18.08
2023-02-06T20:06:21.309Z,13.95
2023-02-06T20:08:48.276Z,22.15
2023-02-06T20:11:16.296Z,14.23
2023-02-06T20:13:43.784Z,15.85
2023-02-06T20:16:16.947Z,23.75
2023-02-06T20:18:44.086Z,14.27
2023-02-06T20:21:20.642Z,19.42
2023-02-06T20:23:49.673Z,17.27
2023-02-06T20:26:17.879Z,19.00
2023-02-06T20:28:44.607Z,17.20
2023-02-06T20:31:11.948Z,17.90
2023-02-06T20:33:38.897Z,20.15
2023-02-06T20:36:06.575Z,20.55
2023-02-06T20:38:33.326Z,18.02
2023-02-06T20:41:04.242Z,23.77
2023-02-06T20:43:32.514Z,27.27
2023-02-06T20:45:59.360Z,21.80
2023-02-06T20:48:26.151Z,16.70
2023-02-06T20:51:00.754Z,25.15
2023-02-06T20:53:27.487Z,25.25
2023-02-06T20:55:54.589Z,23.98
2023-02-06T20:58:21.864Z,21.70
2023-02-06T21:00:50.285Z,21.95
2023-02-06T21:03:17.465Z,24.50
2023-02-06T21:05:44.581Z,24.75
2023-02-06T21:08:11.593Z,27.67
2023-02-06T21:10:38.439Z,26.33
2023-02-06T21:13:05.376Z,22.00
2023-02-06T21:15:33.356Z,21.55
2023-02-06T21:18:00.105Z,20.67
2023-02-06T21:20:26.901Z,25.35
2023-02-06T21:22:56.132Z,25.48
2023-02-06T21:25:22.965Z,22.15
2023-02-06T21:27:49.780Z,19.42
2023-02-06T21:30:16.980Z,23.60
2023-02-06T21:32:43.883Z,27.42
2023-02-06T21:35:10.736Z,19.98
2023-02-06T21:37:37.593Z,22.30
2023-02-06T21:40:05.361Z,28.50
2023-02-06T21:42:32.450Z,23.83
2023-02-06T21:44:59.185Z,24.88
2023-02-06T21:47:25.898Z,31.48
2023-02-06T21:49:52.639Z,28.27
2023-02-06T21:52:19.387Z,24.33
2023-02-06T21:54:46.049Z,27.73
2023-02-06T21:57:12.763Z,27.23
2023-02-06T21:59:40.955Z,21.42
2023-02-06T22:02:09.410Z,21.27
2023-02-06T22:04:36.110Z,27.38
2023-02-06T22:07:02.789Z,26.15
2023-02-06T22:09:29.554Z,24.42
2023-02-06T22:11:56.762Z,24.42
2023-02-06T22:14:23.766Z,22.85
2023-02-06T22:16:50.593Z,32.58
2023-02-06T22:19:18.034Z,36.38
2023-02-06T22:21:44.774Z,28.05
2023-02-06T22:24:12.020Z,32.47
2023-02-06T22:26:39.397Z,34.40
2023-02-06T22:29:07.750Z,28.25
2023-02-06T22:31:35.330Z,29.92
2023-02-06T22:34:02.862Z,37.20
2023-02-06T22:36:31.435Z,43.40
2023-02-06T22:38:59.768Z,27.67
2023-02-06T22:41:26.910Z,31.70
2023-02-06T22:43:53.742Z,28.50
2023-02-06T22:46:27.463Z,28.77
2023-02-06T22:48:54.513Z,30.10
2023-02-06T22:51:21.586Z,23.98
2023-02-06T22:53:48.742Z,35.60
2023-02-06T22:56:31.920Z,24.63
2023-02-06T22:59:03.972Z,25.10
2023-02-06T23:01:33.270Z,26.42
2023-02-06T23:04:00.942Z,28.35
2023-02-06T23:06:28.602Z,17.08
2023-02-06T23:08:56.801Z,16.60
2023-02-06T23:11:24.507Z,17.00
2023-02-06T23:13:52.640Z,16.50
2023-02-06T23:16:19.522Z,25.50
2023-02-06T23:18:46.484Z,22.48
2023-02-06T23:21:13.960Z,32.17
2023-02-06T23:23:41.387Z,31.88
2023-02-06T23:26:10.306Z,25.60
2023-02-06T23:28:37.266Z,26.85
2023-02-06T23:31:05.754Z,32.05
2023-02-06T23:33:33.520Z,27.80
2023-02-06T23:36:07.969Z,36.20
2023-02-06T23:38:34.912Z,20.80
2023-02-06T23:41:08.705Z,17.48
2023-02-06T23:43:36.280Z,16.55
2023-02-06T23:46:03.567Z,13.00
2023-02-06T23:48:31.194Z,12.18
2023-02-06T23:51:03.964Z,17.13
2023-02-06T23:53:30.683Z,14.65
2023-02-06T23:55:57.445Z,18.60
2023-02-06T23:58:24.240Z,18.70
